SWA1848 KDEN-KDAL
Flight info
| Callsign | SWA1848 |
|---|---|
| Flight time | 1h 35m |
| Altitude | 37000 |
| Route | SLEEK2 SLEEK KA39Y STNLI HERBZ2 |
| Aircraft | B738/M-SADE2E3GIJ4RWZ/LB1D1 |
Departure
| Time | 2026-05-06 22:23 |
|---|---|
| Airport | Denver International Airport (KDEN) |
Arrival
| Time | 2026-05-06 23:58 |
|---|---|
| Airport | Dallas Love Field (KDAL) |
| Time | Latitude | Longitude | Altitude | Speed | Heading |
|---|---|---|---|---|---|
| 2026-05-06 21:54 | 39.86253 | -104.67205 | 5376 ft | 0 kts | 0° |
| 2026-05-06 22:15 | 39.86236 | -104.67205 | 5373 ft | 4 kts | 0° |
| 2026-05-06 22:15 | 39.86209 | -104.67205 | 5372 ft | 4 kts | 0° |
| 2026-05-06 22:15 | 39.86183 | -104.67205 | 5376 ft | 4 kts | 0° |
| 2026-05-06 22:16 | 39.86164 | -104.67205 | 5376 ft | 0 kts | 0° |
| 2026-05-06 22:18 | 39.86166 | -104.67204 | 5372 ft | 2 kts | 3° |
| 2026-05-06 22:18 | 39.86168 | -104.67180 | 5374 ft | 5 kts | 107° |
| 2026-05-06 22:18 | 39.86127 | -104.67085 | 5374 ft | 14 kts | 98° |
| 2026-05-06 22:19 | 39.86128 | -104.66917 | 5376 ft | 23 kts | 90° |
| 2026-05-06 22:19 | 39.86127 | -104.66675 | 5377 ft | 31 kts | 92° |
| 2026-05-06 22:19 | 39.86106 | -104.66444 | 5378 ft | 29 kts | 91° |
| 2026-05-06 22:19 | 39.86127 | -104.66249 | 5380 ft | 18 kts | 36° |
| 2026-05-06 22:20 | 39.86279 | -104.66246 | 5378 ft | 27 kts | 342° |
| 2026-05-06 22:20 | 39.86478 | -104.66228 | 5380 ft | 32 kts | 360° |
| 2026-05-06 22:20 | 39.86728 | -104.66221 | 5374 ft | 36 kts | 0° |
| 2026-05-06 22:20 | 39.86867 | -104.66219 | 5368 ft | 19 kts | 1° |
| 2026-05-06 22:21 | 39.87009 | -104.66218 | 5366 ft | 22 kts | 0° |
| 2026-05-06 22:21 | 39.87194 | -104.66218 | 5363 ft | 31 kts | 0° |
| 2026-05-06 22:21 | 39.87425 | -104.66214 | 5360 ft | 34 kts | 1° |
| 2026-05-06 22:21 | 39.87658 | -104.66210 | 5361 ft | 34 kts | 1° |
| 2026-05-06 22:22 | 39.87755 | -104.66078 | 5358 ft | 27 kts | 90° |
| 2026-05-06 22:22 | 39.87751 | -104.65552 | 5352 ft | 91 kts | 90° |
| 2026-05-06 22:22 | 39.87744 | -104.64458 | 5337 ft | 149 kts | 90° |
| 2026-05-06 22:22 | 39.87753 | -104.62967 | 5585 ft | 172 kts | 89° |
| 2026-05-06 22:23 | 39.87714 | -104.61411 | 6306 ft | 176 kts | 98° |
| 2026-05-06 22:23 | 39.87297 | -104.59881 | 6867 ft | 183 kts | 113° |
| 2026-05-06 22:23 | 39.86787 | -104.58288 | 7230 ft | 200 kts | 111° |
| 2026-05-06 22:23 | 39.86254 | -104.56550 | 7564 ft | 212 kts | 111° |
| 2026-05-06 22:24 | 39.85687 | -104.54704 | 7934 ft | 228 kts | 111° |
| 2026-05-06 22:24 | 39.85072 | -104.52737 | 8308 ft | 242 kts | 112° |
| 2026-05-06 22:24 | 39.84415 | -104.50642 | 8657 ft | 262 kts | 111° |
| 2026-05-06 22:24 | 39.83720 | -104.48296 | 8868 ft | 287 kts | 110° |
| 2026-05-06 22:25 | 39.83008 | -104.45863 | 9703 ft | 287 kts | 111° |
| 2026-05-06 22:25 | 39.82272 | -104.43433 | 9978 ft | 291 kts | 111° |
| 2026-05-06 22:25 | 39.81778 | -104.41816 | 9993 ft | 288 kts | 112° |
| 2026-05-06 22:25 | 39.80640 | -104.39702 | 9985 ft | 293 kts | 144° |
| 2026-05-06 22:26 | 39.78827 | -104.38456 | 10214 ft | 307 kts | 161° |
| 2026-05-06 22:26 | 39.76695 | -104.37656 | 10439 ft | 331 kts | 166° |
| 2026-05-06 22:26 | 39.74406 | -104.36849 | 10736 ft | 349 kts | 165° |
| 2026-05-06 22:26 | 39.72015 | -104.36113 | 11439 ft | 355 kts | 176° |
| 2026-05-06 22:27 | 39.68817 | -104.36807 | 12539 ft | 353 kts | 202° |
| 2026-05-06 22:27 | 39.67276 | -104.37612 | 13081 ft | 355 kts | 205° |
| 2026-05-06 22:27 | 39.64998 | -104.38854 | 13828 ft | 358 kts | 205° |
| 2026-05-06 22:27 | 39.62690 | -104.40117 | 14562 ft | 361 kts | 205° |
| 2026-05-06 22:28 | 39.60358 | -104.41372 | 15314 ft | 364 kts | 205° |
| 2026-05-06 22:28 | 39.58035 | -104.42598 | 16036 ft | 366 kts | 205° |
| 2026-05-06 22:28 | 39.55660 | -104.43843 | 16727 ft | 369 kts | 205° |
| 2026-05-06 22:28 | 39.53222 | -104.44964 | 17376 ft | 377 kts | 196° |
| 2026-05-06 22:29 | 39.50570 | -104.45091 | 18012 ft | 390 kts | 177° |
| 2026-05-06 22:29 | 39.47880 | -104.44455 | 18684 ft | 395 kts | 173° |
| 2026-05-06 22:29 | 39.45178 | -104.43728 | 19264 ft | 398 kts | 173° |
| 2026-05-06 22:29 | 39.42441 | -104.43022 | 19751 ft | 402 kts | 174° |
| 2026-05-06 22:30 | 39.39685 | -104.42343 | 20224 ft | 405 kts | 174° |
| 2026-05-06 22:30 | 39.36905 | -104.41673 | 20709 ft | 408 kts | 174° |
| 2026-05-06 22:30 | 39.34106 | -104.41001 | 21202 ft | 410 kts | 174° |
| 2026-05-06 22:30 | 39.31294 | -104.40325 | 21666 ft | 412 kts | 174° |
| 2026-05-06 22:31 | 39.28463 | -104.39645 | 22113 ft | 415 kts | 174° |
| 2026-05-06 22:31 | 39.25615 | -104.38961 | 22536 ft | 418 kts | 174° |
| 2026-05-06 22:31 | 39.22746 | -104.38271 | 22926 ft | 421 kts | 174° |
| 2026-05-06 22:31 | 39.19815 | -104.37568 | 22971 ft | 433 kts | 174° |
| 2026-05-06 22:32 | 39.16863 | -104.36855 | 23086 ft | 442 kts | 173° |
| 2026-05-06 22:32 | 39.13856 | -104.35746 | 23147 ft | 458 kts | 163° |
| 2026-05-06 22:32 | 39.10934 | -104.33987 | 23175 ft | 470 kts | 158° |
| 2026-05-06 22:32 | 39.07985 | -104.32075 | 23186 ft | 478 kts | 158° |
| 2026-05-06 22:33 | 39.05007 | -104.30125 | 23218 ft | 479 kts | 158° |
| 2026-05-06 22:33 | 39.02060 | -104.28202 | 23952 ft | 469 kts | 158° |
| 2026-05-06 22:33 | 38.99183 | -104.26341 | 24836 ft | 456 kts | 159° |
| 2026-05-06 22:33 | 38.96376 | -104.24544 | 25638 ft | 447 kts | 159° |
| 2026-05-06 22:34 | 38.93590 | -104.22780 | 26109 ft | 446 kts | 159° |
| 2026-05-06 22:34 | 38.90798 | -104.21027 | 26387 ft | 449 kts | 159° |
| 2026-05-06 22:34 | 38.87970 | -104.19258 | 26641 ft | 453 kts | 159° |
| 2026-05-06 22:34 | 38.85128 | -104.17480 | 26917 ft | 456 kts | 159° |
| 2026-05-06 22:35 | 38.82264 | -104.15688 | 27231 ft | 457 kts | 159° |
| 2026-05-06 22:35 | 38.79397 | -104.13893 | 27540 ft | 459 kts | 159° |
| 2026-05-06 22:35 | 38.76527 | -104.12095 | 27843 ft | 460 kts | 159° |
| 2026-05-06 22:35 | 38.73652 | -104.10297 | 28147 ft | 461 kts | 159° |
| 2026-05-06 22:36 | 38.70760 | -104.08489 | 28408 ft | 463 kts | 159° |
| 2026-05-06 22:36 | 38.67857 | -104.06674 | 28690 ft | 464 kts | 159° |
| 2026-05-06 22:36 | 38.64946 | -104.04858 | 28945 ft | 466 kts | 160° |
| 2026-05-06 22:36 | 38.62019 | -104.03034 | 29194 ft | 467 kts | 160° |
| 2026-05-06 22:37 | 38.59131 | -104.01234 | 29462 ft | 468 kts | 160° |
| 2026-05-06 22:37 | 38.56194 | -103.99407 | 29690 ft | 470 kts | 160° |
| 2026-05-06 22:37 | 38.53252 | -103.97576 | 29957 ft | 470 kts | 161° |
| 2026-05-06 22:37 | 38.50315 | -103.95749 | 30299 ft | 468 kts | 161° |
| 2026-05-06 22:38 | 38.47383 | -103.93927 | 30615 ft | 467 kts | 161° |
| 2026-05-06 22:38 | 38.44459 | -103.92114 | 30881 ft | 467 kts | 161° |
| 2026-05-06 22:38 | 38.41534 | -103.90304 | 31151 ft | 467 kts | 161° |
| 2026-05-06 22:38 | 38.38641 | -103.88513 | 31423 ft | 467 kts | 161° |
| 2026-05-06 22:39 | 38.35725 | -103.86709 | 31745 ft | 465 kts | 161° |
| 2026-05-06 22:39 | 38.32811 | -103.84908 | 32033 ft | 465 kts | 162° |
| 2026-05-06 22:39 | 38.29894 | -103.83109 | 32273 ft | 465 kts | 162° |
| 2026-05-06 22:39 | 38.26979 | -103.81312 | 32516 ft | 465 kts | 162° |
| 2026-05-06 22:40 | 38.24069 | -103.79518 | 32790 ft | 465 kts | 162° |
| 2026-05-06 22:40 | 38.21159 | -103.77726 | 33075 ft | 464 kts | 162° |
| 2026-05-06 22:40 | 38.18264 | -103.75943 | 33384 ft | 462 kts | 162° |
| 2026-05-06 22:40 | 38.15370 | -103.74163 | 33684 ft | 461 kts | 162° |
| 2026-05-06 22:41 | 38.09590 | -103.70618 | 34160 ft | 462 kts | 163° |
| 2026-05-06 22:41 | 38.06725 | -103.68754 | 34383 ft | 467 kts | 158° |
| 2026-05-06 22:41 | 38.04035 | -103.66344 | 34555 ft | 480 kts | 148° |
| 2026-05-06 22:42 | 38.01538 | -103.63596 | 34765 ft | 482 kts | 146° |
| 2026-05-06 22:42 | 37.99033 | -103.60763 | 34967 ft | 483 kts | 146° |
| 2026-05-06 22:42 | 37.96528 | -103.57914 | 35164 ft | 484 kts | 146° |
| 2026-05-06 22:42 | 37.94014 | -103.55070 | 35396 ft | 483 kts | 147° |
| 2026-05-06 22:43 | 37.91498 | -103.52249 | 35610 ft | 483 kts | 147° |
| 2026-05-06 22:43 | 37.88968 | -103.49435 | 35806 ft | 484 kts | 147° |
| 2026-05-06 22:43 | 37.86435 | -103.46633 | 35992 ft | 484 kts | 147° |
| 2026-05-06 22:43 | 37.83895 | -103.43836 | 36134 ft | 485 kts | 147° |
| 2026-05-06 22:44 | 37.81338 | -103.41028 | 36089 ft | 490 kts | 148° |
| 2026-05-06 22:44 | 37.78748 | -103.38189 | 35815 ft | 491 kts | 148° |
| 2026-05-06 22:44 | 37.76180 | -103.35368 | 35570 ft | 486 kts | 148° |
| 2026-05-06 22:44 | 37.73645 | -103.32579 | 35319 ft | 480 kts | 148° |
| 2026-05-06 22:45 | 37.71127 | -103.29816 | 35226 ft | 480 kts | 148° |
| 2026-05-06 22:45 | 37.66082 | -103.24302 | 35189 ft | 482 kts | 149° |
| 2026-05-06 22:46 | 37.61011 | -103.18764 | 35183 ft | 482 kts | 149° |
| 2026-05-06 22:46 | 37.55946 | -103.13242 | 35189 ft | 481 kts | 149° |
| 2026-05-06 22:47 | 37.50876 | -103.07721 | 35179 ft | 481 kts | 149° |
| 2026-05-06 22:47 | 37.45831 | -103.02241 | 35177 ft | 481 kts | 150° |
| 2026-05-06 22:48 | 37.40769 | -102.96753 | 35166 ft | 480 kts | 150° |
| 2026-05-06 22:48 | 37.35710 | -102.91277 | 35165 ft | 480 kts | 150° |
| 2026-05-06 22:49 | 37.30653 | -102.85813 | 35163 ft | 479 kts | 150° |
| 2026-05-06 22:49 | 37.25597 | -102.80361 | 35154 ft | 478 kts | 150° |
| 2026-05-06 22:50 | 37.20544 | -102.74918 | 35150 ft | 479 kts | 150° |
| 2026-05-06 22:50 | 37.15485 | -102.69485 | 35147 ft | 479 kts | 151° |
| 2026-05-06 22:51 | 37.10421 | -102.64055 | 35149 ft | 479 kts | 151° |
| 2026-05-06 22:51 | 37.05357 | -102.58635 | 35149 ft | 479 kts | 151° |
| 2026-05-06 22:52 | 37.00293 | -102.53223 | 35151 ft | 479 kts | 152° |
| 2026-05-06 22:52 | 36.95223 | -102.47815 | 35155 ft | 479 kts | 152° |
| 2026-05-06 22:53 | 36.90173 | -102.42439 | 35159 ft | 479 kts | 152° |
| 2026-05-06 22:53 | 36.85088 | -102.37037 | 35154 ft | 479 kts | 153° |
| 2026-05-06 22:54 | 36.80005 | -102.31646 | 35160 ft | 480 kts | 153° |
| 2026-05-06 22:54 | 36.74915 | -102.26253 | 35156 ft | 480 kts | 153° |
| 2026-05-06 22:55 | 36.69820 | -102.20866 | 35158 ft | 479 kts | 154° |
| 2026-05-06 22:55 | 36.64762 | -102.15527 | 35156 ft | 479 kts | 154° |
| 2026-05-06 22:56 | 36.59669 | -102.10160 | 35146 ft | 479 kts | 155° |
| 2026-05-06 22:56 | 36.54571 | -102.04801 | 35151 ft | 479 kts | 155° |
| 2026-05-06 22:57 | 36.49486 | -101.99423 | 35132 ft | 484 kts | 153° |
| 2026-05-06 22:57 | 36.44652 | -101.93448 | 35140 ft | 492 kts | 149° |
| 2026-05-06 22:58 | 36.39966 | -101.87300 | 35130 ft | 493 kts | 149° |
| 2026-05-06 22:58 | 36.35238 | -101.81144 | 35139 ft | 492 kts | 149° |
| 2026-05-06 22:59 | 36.30487 | -101.75050 | 35140 ft | 490 kts | 150° |
| 2026-05-06 22:59 | 36.25724 | -101.68994 | 35130 ft | 490 kts | 150° |
| 2026-05-06 23:00 | 36.20964 | -101.62958 | 35132 ft | 490 kts | 150° |
| 2026-05-06 23:00 | 36.16193 | -101.56915 | 35128 ft | 489 kts | 150° |
| 2026-05-06 23:01 | 36.11468 | -101.50936 | 35130 ft | 489 kts | 150° |
| 2026-05-06 23:01 | 36.06710 | -101.44925 | 35134 ft | 489 kts | 150° |
| 2026-05-06 23:02 | 36.01935 | -101.38908 | 35131 ft | 490 kts | 150° |
| 2026-05-06 23:02 | 35.97166 | -101.32907 | 35132 ft | 489 kts | 150° |
| 2026-05-06 23:03 | 35.92395 | -101.26912 | 35125 ft | 489 kts | 150° |
| 2026-05-06 23:03 | 35.87659 | -101.20975 | 35119 ft | 488 kts | 150° |
| 2026-05-06 23:04 | 35.82898 | -101.15016 | 35124 ft | 488 kts | 150° |
| 2026-05-06 23:04 | 35.78140 | -101.09073 | 35128 ft | 488 kts | 150° |
| 2026-05-06 23:05 | 35.73361 | -101.03116 | 35116 ft | 488 kts | 150° |
| 2026-05-06 23:05 | 35.68583 | -100.97171 | 35113 ft | 488 kts | 150° |
| 2026-05-06 23:06 | 35.63835 | -100.91271 | 35103 ft | 488 kts | 151° |
| 2026-05-06 23:06 | 35.59055 | -100.85341 | 35104 ft | 487 kts | 150° |
| 2026-05-06 23:07 | 35.54277 | -100.79423 | 35100 ft | 487 kts | 151° |
| 2026-05-06 23:07 | 35.49501 | -100.73521 | 35106 ft | 486 kts | 151° |
| 2026-05-06 23:08 | 35.44729 | -100.67637 | 35103 ft | 486 kts | 151° |
| 2026-05-06 23:08 | 35.39985 | -100.61795 | 35104 ft | 486 kts | 151° |
| 2026-05-06 23:09 | 35.35207 | -100.55924 | 35100 ft | 485 kts | 151° |
| 2026-05-06 23:09 | 35.30432 | -100.50063 | 35085 ft | 485 kts | 151° |
| 2026-05-06 23:10 | 35.25670 | -100.44229 | 35096 ft | 484 kts | 151° |
| 2026-05-06 23:10 | 35.20900 | -100.38398 | 35084 ft | 484 kts | 151° |
| 2026-05-06 23:11 | 35.16168 | -100.32623 | 35079 ft | 484 kts | 151° |
| 2026-05-06 23:11 | 35.11399 | -100.26810 | 35085 ft | 483 kts | 151° |
| 2026-05-06 23:12 | 35.06638 | -100.21021 | 35075 ft | 483 kts | 151° |
| 2026-05-06 23:12 | 35.01873 | -100.15238 | 35070 ft | 482 kts | 151° |
| 2026-05-06 23:13 | 34.97115 | -100.09472 | 35065 ft | 482 kts | 151° |
| 2026-05-06 23:13 | 34.92390 | -100.03754 | 35069 ft | 481 kts | 151° |
| 2026-05-06 23:14 | 34.87643 | -99.98018 | 35061 ft | 481 kts | 151° |
| 2026-05-06 23:14 | 34.82885 | -99.92283 | 35062 ft | 480 kts | 151° |
| 2026-05-06 23:15 | 34.78932 | -99.87525 | 35066 ft | 479 kts | 151° |
| 2026-05-06 23:15 | 34.73425 | -99.80906 | 35061 ft | 479 kts | 151° |
| 2026-05-06 23:16 | 34.69461 | -99.76147 | 35060 ft | 478 kts | 151° |
| 2026-05-06 23:16 | 34.64730 | -99.70480 | 35056 ft | 476 kts | 151° |
| 2026-05-06 23:17 | 34.60039 | -99.64871 | 35063 ft | 476 kts | 151° |
| 2026-05-06 23:17 | 34.55322 | -99.59239 | 35065 ft | 475 kts | 151° |
| 2026-05-06 23:18 | 34.50598 | -99.53611 | 35061 ft | 475 kts | 151° |
| 2026-05-06 23:18 | 34.45865 | -99.47977 | 35057 ft | 476 kts | 151° |
| 2026-05-06 23:19 | 34.41171 | -99.42389 | 35057 ft | 479 kts | 149° |
| 2026-05-06 23:19 | 34.39057 | -99.39117 | 35039 ft | 508 kts | 135° |
| 2026-05-06 23:19 | 34.37260 | -99.35407 | 35047 ft | 513 kts | 133° |
| 2026-05-06 23:20 | 34.33796 | -99.27818 | 35048 ft | 516 kts | 133° |
| 2026-05-06 23:20 | 34.30291 | -99.20256 | 35043 ft | 515 kts | 133° |
| 2026-05-06 23:21 | 34.26717 | -99.12758 | 35038 ft | 514 kts | 134° |
| 2026-05-06 23:21 | 34.24910 | -99.09009 | 34546 ft | 519 kts | 134° |
| 2026-05-06 23:21 | 34.23094 | -99.05247 | 33951 ft | 517 kts | 134° |
| 2026-05-06 23:21 | 34.21280 | -99.01483 | 33284 ft | 516 kts | 134° |
| 2026-05-06 23:22 | 34.19471 | -98.97732 | 32604 ft | 517 kts | 133° |
| 2026-05-06 23:22 | 34.17662 | -98.93981 | 31904 ft | 517 kts | 133° |
| 2026-05-06 23:22 | 34.15870 | -98.90274 | 31188 ft | 518 kts | 133° |
| 2026-05-06 23:22 | 34.14053 | -98.86516 | 30436 ft | 518 kts | 132° |
| 2026-05-06 23:23 | 34.12227 | -98.82744 | 29749 ft | 518 kts | 132° |
| 2026-05-06 23:23 | 34.10421 | -98.79009 | 29203 ft | 513 kts | 132° |
| 2026-05-06 23:23 | 34.08626 | -98.75299 | 28643 ft | 509 kts | 131° |
| 2026-05-06 23:23 | 34.06847 | -98.71629 | 28090 ft | 505 kts | 131° |
| 2026-05-06 23:24 | 34.05073 | -98.67979 | 27527 ft | 501 kts | 131° |
| 2026-05-06 23:24 | 34.03317 | -98.64370 | 26979 ft | 497 kts | 131° |
| 2026-05-06 23:24 | 34.01574 | -98.60792 | 26420 ft | 493 kts | 131° |
| 2026-05-06 23:24 | 33.99870 | -98.57295 | 25894 ft | 489 kts | 131° |
| 2026-05-06 23:25 | 33.98154 | -98.53776 | 25348 ft | 485 kts | 130° |
| 2026-05-06 23:25 | 33.96453 | -98.50292 | 24809 ft | 481 kts | 130° |
| 2026-05-06 23:25 | 33.94764 | -98.46838 | 24308 ft | 476 kts | 130° |
| 2026-05-06 23:25 | 33.93108 | -98.43446 | 24145 ft | 463 kts | 130° |
| 2026-05-06 23:26 | 33.91491 | -98.40134 | 23896 ft | 453 kts | 130° |
| 2026-05-06 23:26 | 33.89892 | -98.36873 | 23418 ft | 450 kts | 130° |
| 2026-05-06 23:26 | 33.88306 | -98.33644 | 22974 ft | 447 kts | 130° |
| 2026-05-06 23:26 | 33.86729 | -98.30436 | 22525 ft | 444 kts | 130° |
| 2026-05-06 23:27 | 33.85165 | -98.27255 | 22080 ft | 441 kts | 130° |
| 2026-05-06 23:27 | 33.83608 | -98.24092 | 21627 ft | 438 kts | 130° |
| 2026-05-06 23:27 | 33.82056 | -98.20941 | 21185 ft | 435 kts | 130° |
| 2026-05-06 23:27 | 33.80539 | -98.17863 | 20753 ft | 432 kts | 130° |
| 2026-05-06 23:28 | 33.79011 | -98.14766 | 20317 ft | 428 kts | 130° |
| 2026-05-06 23:28 | 33.77497 | -98.11696 | 19882 ft | 425 kts | 130° |
| 2026-05-06 23:28 | 33.75992 | -98.08648 | 19451 ft | 422 kts | 130° |
| 2026-05-06 23:28 | 33.74498 | -98.05625 | 19020 ft | 418 kts | 130° |
| 2026-05-06 23:29 | 33.73018 | -98.02636 | 18597 ft | 415 kts | 130° |
| 2026-05-06 23:29 | 33.71546 | -97.99666 | 18199 ft | 411 kts | 130° |
| 2026-05-06 23:29 | 33.70101 | -97.96759 | 17788 ft | 410 kts | 130° |
| 2026-05-06 23:29 | 33.68635 | -97.93827 | 17359 ft | 408 kts | 129° |
| 2026-05-06 23:30 | 33.67197 | -97.90926 | 16929 ft | 403 kts | 129° |
| 2026-05-06 23:30 | 33.65779 | -97.88059 | 16524 ft | 399 kts | 129° |
| 2026-05-06 23:30 | 33.64362 | -97.85198 | 16119 ft | 395 kts | 129° |
| 2026-05-06 23:30 | 33.62961 | -97.82378 | 15721 ft | 391 kts | 129° |
| 2026-05-06 23:31 | 33.61572 | -97.79590 | 15329 ft | 388 kts | 129° |
| 2026-05-06 23:31 | 33.60195 | -97.76827 | 14921 ft | 384 kts | 129° |
| 2026-05-06 23:31 | 33.58833 | -97.74096 | 14534 ft | 380 kts | 128° |
| 2026-05-06 23:31 | 33.57482 | -97.71389 | 14150 ft | 376 kts | 128° |
| 2026-05-06 23:32 | 33.56143 | -97.68712 | 13767 ft | 373 kts | 128° |
| 2026-05-06 23:32 | 33.54816 | -97.66057 | 13393 ft | 369 kts | 128° |
| 2026-05-06 23:32 | 33.53501 | -97.63428 | 13014 ft | 366 kts | 128° |
| 2026-05-06 23:32 | 33.52197 | -97.60824 | 12650 ft | 363 kts | 128° |
| 2026-05-06 23:33 | 33.50903 | -97.58243 | 12281 ft | 359 kts | 128° |
| 2026-05-06 23:33 | 33.49635 | -97.55715 | 11920 ft | 356 kts | 127° |
| 2026-05-06 23:33 | 33.48350 | -97.53153 | 11546 ft | 353 kts | 127° |
| 2026-05-06 23:33 | 33.47090 | -97.50642 | 11185 ft | 349 kts | 126° |
| 2026-05-06 23:34 | 33.45857 | -97.48187 | 10829 ft | 346 kts | 126° |
| 2026-05-06 23:34 | 33.44630 | -97.45728 | 10488 ft | 342 kts | 124° |
| 2026-05-06 23:34 | 33.43485 | -97.43230 | 10140 ft | 339 kts | 122° |
| 2026-05-06 23:34 | 33.42420 | -97.40805 | 9941 ft | 323 kts | 121° |
| 2026-05-06 23:35 | 33.41415 | -97.38501 | 9919 ft | 302 kts | 121° |
| 2026-05-06 23:35 | 33.40441 | -97.36290 | 9309 ft | 304 kts | 121° |
| 2026-05-06 23:35 | 33.39457 | -97.34076 | 8923 ft | 298 kts | 121° |
| 2026-05-06 23:35 | 33.38490 | -97.31907 | 8593 ft | 291 kts | 120° |
| 2026-05-06 23:36 | 33.37549 | -97.29802 | 8286 ft | 283 kts | 120° |
| 2026-05-06 23:36 | 33.36631 | -97.27746 | 7992 ft | 277 kts | 120° |
| 2026-05-06 23:36 | 33.35721 | -97.25720 | 7712 ft | 276 kts | 120° |
| 2026-05-06 23:36 | 33.34804 | -97.23685 | 7441 ft | 278 kts | 120° |
| 2026-05-06 23:37 | 33.33888 | -97.21646 | 7148 ft | 278 kts | 120° |
| 2026-05-06 23:37 | 33.32976 | -97.19615 | 6873 ft | 276 kts | 119° |
| 2026-05-06 23:37 | 33.32070 | -97.17599 | 6582 ft | 274 kts | 119° |
| 2026-05-06 23:37 | 33.31183 | -97.15625 | 6302 ft | 273 kts | 119° |
| 2026-05-06 23:38 | 33.30288 | -97.13636 | 6036 ft | 270 kts | 119° |
| 2026-05-06 23:38 | 33.29417 | -97.11692 | 5917 ft | 260 kts | 119° |
| 2026-05-06 23:38 | 33.28552 | -97.09776 | 5818 ft | 264 kts | 119° |
| 2026-05-06 23:38 | 33.27674 | -97.07829 | 5712 ft | 268 kts | 118° |
| 2026-05-06 23:39 | 33.26786 | -97.05862 | 5609 ft | 269 kts | 119° |
| 2026-05-06 23:39 | 33.25893 | -97.03884 | 5499 ft | 272 kts | 118° |
| 2026-05-06 23:39 | 33.24995 | -97.01890 | 5381 ft | 271 kts | 118° |
| 2026-05-06 23:39 | 33.24103 | -96.99919 | 5268 ft | 267 kts | 118° |
| 2026-05-06 23:40 | 33.23239 | -96.98002 | 5153 ft | 265 kts | 118° |
| 2026-05-06 23:40 | 33.22358 | -96.96057 | 5054 ft | 265 kts | 118° |
| 2026-05-06 23:40 | 33.21482 | -96.94133 | 5013 ft | 261 kts | 118° |
| 2026-05-06 23:40 | 33.20665 | -96.92205 | 5024 ft | 260 kts | 115° |
| 2026-05-06 23:41 | 33.19893 | -96.90255 | 5010 ft | 260 kts | 115° |
| 2026-05-06 23:41 | 33.19121 | -96.88300 | 5012 ft | 259 kts | 115° |
| 2026-05-06 23:41 | 33.18371 | -96.86366 | 4882 ft | 257 kts | 115° |
| 2026-05-06 23:41 | 33.17596 | -96.84444 | 4832 ft | 257 kts | 115° |
| 2026-05-06 23:42 | 33.16830 | -96.82497 | 4777 ft | 260 kts | 115° |
| 2026-05-06 23:42 | 33.16065 | -96.80521 | 4741 ft | 263 kts | 114° |
| 2026-05-06 23:42 | 33.15300 | -96.78544 | 4695 ft | 263 kts | 115° |
| 2026-05-06 23:42 | 33.14511 | -96.76574 | 4655 ft | 262 kts | 115° |
| 2026-05-06 23:43 | 33.13722 | -96.74613 | 4616 ft | 261 kts | 115° |
| 2026-05-06 23:43 | 33.12945 | -96.72656 | 4587 ft | 261 kts | 115° |
| 2026-05-06 23:43 | 33.12171 | -96.70701 | 4553 ft | 261 kts | 115° |
| 2026-05-06 23:43 | 33.11201 | -96.68896 | 4487 ft | 260 kts | 139° |
| 2026-05-06 23:44 | 33.09570 | -96.68046 | 4492 ft | 260 kts | 176° |
| 2026-05-06 23:44 | 33.07776 | -96.68061 | 4496 ft | 263 kts | 181° |
| 2026-05-06 23:44 | 33.05950 | -96.68075 | 4438 ft | 263 kts | 180° |
| 2026-05-06 23:44 | 33.04121 | -96.68071 | 4397 ft | 262 kts | 180° |
| 2026-05-06 23:45 | 33.02294 | -96.68056 | 4352 ft | 261 kts | 180° |
| 2026-05-06 23:45 | 33.00472 | -96.68036 | 4322 ft | 260 kts | 179° |
| 2026-05-06 23:45 | 32.98658 | -96.68011 | 4289 ft | 259 kts | 179° |
| 2026-05-06 23:45 | 32.96852 | -96.67982 | 4254 ft | 259 kts | 179° |
| 2026-05-06 23:46 | 32.95072 | -96.67951 | 4228 ft | 260 kts | 179° |
| 2026-05-06 23:46 | 32.93265 | -96.67919 | 4158 ft | 261 kts | 179° |
| 2026-05-06 23:46 | 32.91441 | -96.67886 | 4054 ft | 263 kts | 179° |
| 2026-05-06 23:46 | 32.89622 | -96.67853 | 4005 ft | 259 kts | 179° |
| 2026-05-06 23:47 | 32.87847 | -96.67820 | 4027 ft | 247 kts | 179° |
| 2026-05-06 23:47 | 32.86206 | -96.67792 | 4008 ft | 225 kts | 179° |
| 2026-05-06 23:47 | 32.84707 | -96.67766 | 3983 ft | 206 kts | 186° |
| 2026-05-06 23:47 | 32.83418 | -96.68358 | 3801 ft | 196 kts | 209° |
| 2026-05-06 23:48 | 32.82218 | -96.69098 | 3561 ft | 194 kts | 208° |
| 2026-05-06 23:48 | 32.81026 | -96.69810 | 3332 ft | 190 kts | 208° |
| 2026-05-06 23:48 | 32.79871 | -96.70535 | 3101 ft | 186 kts | 210° |
| 2026-05-06 23:48 | 32.78832 | -96.71374 | 2896 ft | 183 kts | 227° |
| 2026-05-06 23:49 | 32.78153 | -96.72625 | 2662 ft | 175 kts | 255° |
| 2026-05-06 23:49 | 32.77896 | -96.73980 | 2551 ft | 170 kts | 269° |
| 2026-05-06 23:49 | 32.77921 | -96.75387 | 2369 ft | 169 kts | 279° |
| 2026-05-06 23:49 | 32.78237 | -96.76669 | 2149 ft | 159 kts | 307° |
| 2026-05-06 23:50 | 32.78912 | -96.77655 | 1996 ft | 156 kts | 314° |
| 2026-05-06 23:50 | 32.80346 | -96.79440 | 1575 ft | 135 kts | 317° |
| 2026-05-06 23:50 | 32.80995 | -96.80198 | 1226 ft | 129 kts | 319° |
| 2026-05-06 23:51 | 32.81676 | -96.80950 | 732 ft | 136 kts | 320° |
| 2026-05-06 23:51 | 32.82317 | -96.81633 | 534 ft | 111 kts | 319° |
| 2026-05-06 23:51 | 32.82859 | -96.82206 | 1196 ft | 260 kts | 320° |
| 2026-05-06 23:51 | 32.84047 | -96.83712 | 590 ft | 238 kts | 310° |
| 2026-05-06 23:52 | 32.85122 | -96.84942 | 680 ft | 192 kts | 318° |
| 2026-05-06 23:52 | 32.86123 | -96.85886 | 1109 ft | 181 kts | 338° |
| 2026-05-06 23:52 | 32.87277 | -96.86037 | 1878 ft | 160 kts | 20° |
| 2026-05-06 23:52 | 32.88112 | -96.85122 | 2086 ft | 181 kts | 60° |
| 2026-05-06 23:53 | 32.88618 | -96.83659 | 2355 ft | 194 kts | 71° |
| 2026-05-06 23:53 | 32.88886 | -96.82089 | 2875 ft | 195 kts | 88° |
| 2026-05-06 23:53 | 32.88717 | -96.80520 | 3548 ft | 186 kts | 105° |
| 2026-05-06 23:53 | 32.88171 | -96.79138 | 3924 ft | 198 kts | 125° |
| 2026-05-06 23:54 | 32.87261 | -96.77818 | 3827 ft | 210 kts | 130° |
| 2026-05-06 23:54 | 32.86331 | -96.76488 | 3632 ft | 211 kts | 128° |
| 2026-05-06 23:54 | 32.85377 | -96.75158 | 3536 ft | 206 kts | 129° |
| 2026-05-06 23:54 | 32.84366 | -96.73925 | 3249 ft | 214 kts | 142° |
| 2026-05-06 23:55 | 32.82981 | -96.73234 | 2991 ft | 216 kts | 169° |
| 2026-05-06 23:55 | 32.81526 | -96.73219 | 2885 ft | 206 kts | 185° |
| 2026-05-06 23:55 | 32.80189 | -96.73666 | 2868 ft | 196 kts | 211° |
| 2026-05-06 23:55 | 32.79278 | -96.74769 | 2969 ft | 183 kts | 250° |
| 2026-05-06 23:56 | 32.79083 | -96.76260 | 2767 ft | 185 kts | 278° |
| 2026-05-06 23:56 | 32.79339 | -96.77752 | 2478 ft | 187 kts | 293° |
| 2026-05-06 23:56 | 32.79989 | -96.79100 | 2155 ft | 186 kts | 311° |
| 2026-05-06 23:56 | 32.80845 | -96.80197 | 1771 ft | 176 kts | 320° |
| 2026-05-06 23:57 | 32.81757 | -96.81129 | 1351 ft | 170 kts | 321° |
| 2026-05-06 23:57 | 32.82587 | -96.82060 | 1017 ft | 162 kts | 317° |
| 2026-05-06 23:57 | 32.83394 | -96.82984 | 740 ft | 155 kts | 318° |
| 2026-05-06 23:57 | 32.84147 | -96.83845 | 554 ft | 149 kts | 318° |
| 2026-05-06 23:58 | 32.84879 | -96.84685 | 487 ft | 137 kts | 314° |
| 2026-05-06 23:58 | 32.85310 | -96.85194 | 485 ft | 31 kts | 316° |
| 2026-05-06 23:58 | 32.85339 | -96.85330 | 479 ft | 18 kts | 225° |
| 2026-05-06 23:58 | 32.85236 | -96.85391 | 475 ft | 15 kts | 153° |
| 2026-05-06 23:59 | 32.85156 | -96.85320 | 485 ft | 14 kts | 138° |
| 2026-05-06 23:59 | 32.85087 | -96.85245 | 477 ft | 13 kts | 135° |
| 2026-05-06 23:59 | 32.85022 | -96.85170 | 476 ft | 13 kts | 135° |
| 2026-05-06 23:59 | 32.84956 | -96.85071 | 479 ft | 18 kts | 131° |
| 2026-05-07 00:00 | 32.84852 | -96.84954 | 480 ft | 21 kts | 137° |
| 2026-05-07 00:00 | 32.84748 | -96.84929 | 477 ft | 10 kts | 244° |
| 2026-05-07 00:00 | 32.84731 | -96.84950 | 483 ft | 4 kts | 193° |
| 2026-05-07 00:00 | 32.84737 | -96.84965 | 479 ft | 6 kts | 44° |
| 2026-05-07 00:01 | 32.84691 | -96.84940 | 480 ft | 10 kts | 180° |
| 2026-05-07 00:01 | 32.84648 | -96.84940 | 478 ft | 2 kts | 180° |
| 2026-05-07 00:01 | 32.84646 | -96.84940 | 477 ft | 0 kts | 180° |